Time;durP1;ratioP1;P1;durP2;ratioP2;P2;SDS_P1;SDS_P2;PMS_P1;PMS_P2;Temp;Humidity;BMP_temperature;BMP_pressure;BME280_temperature;BME280_humidity;BME280_pressure;Samples;Min_cycle;Max_cycle;Signal;HPM_P1;HPM_P2
2023/10/13 00:00:40;;;;;;;3.88;2.65;;;16.10;99.90;;;;;;5060554;28;20083;-68
2023/10/13 00:03:14;;;;;;;5.88;2.60;;;16.00;99.90;;;;;;5060787;28;20555;-68
2023/10/13 00:05:41;;;;;;;3.55;2.50;;;16.00;99.90;;;;;;5055705;28;20029;-68
2023/10/13 00:08:09;;;;;;;7.13;3.50;;;16.00;99.90;;;;;;5060648;28;20047;-68
2023/10/13 00:10:35;;;;;;;9.55;4.00;;;16.00;99.90;;;;;;5055201;28;20064;-67
2023/10/13 00:13:11;;;;;;;5.78;3.63;;;16.00;99.90;;;;;;5056843;28;20070;-68
2023/10/13 00:18:27;;;;;;;6.82;3.63;;;16.00;99.90;;;;;;5059048;28;20032;-68
2023/10/13 00:20:56;;;;;;;8.13;4.00;;;16.00;99.90;;;;;;5059267;28;20028;-68
2023/10/13 00:23:23;;;;;;;7.78;4.63;;;16.00;99.90;;;;;;5061197;28;20125;-68
2023/10/13 00:25:56;;;;;;;7.38;4.72;;;16.00;99.90;;;;;;5057015;28;20035;-68
2023/10/13 00:28:26;;;;;;;8.43;4.65;;;15.90;99.90;;;;;;5058462;28;20028;-68
2023/10/13 00:31:00;;;;;;;8.95;4.20;;;15.90;99.90;;;;;;5062084;28;20035;-67
2023/10/13 00:33:27;;;;;;;10.13;4.82;;;15.90;99.90;;;;;;5059061;28;20136;-68
2023/10/13 00:35:56;;;;;;;5.07;3.72;;;15.90;99.90;;;;;;5057182;28;20032;-68
2023/10/13 00:38:23;;;;;;;11.50;6.25;;;15.90;99.90;;;;;;5059164;28;20423;-67
2023/10/13 00:40:51;;;;;;;7.90;4.88;;;15.90;99.90;;;;;;5057370;28;20020;-68
2023/10/13 00:48:35;;;;;;;5.50;3.95;;;15.80;99.90;;;;;;5074703;28;20082;-68
2023/10/13 00:51:06;;;;;;;7.60;4.43;;;15.80;99.90;;;;;;5053135;28;20035;-67
2023/10/13 00:53:33;;;;;;;10.45;3.72;;;15.90;99.90;;;;;;5060224;28;20496;-68
2023/10/13 00:56:07;;;;;;;5.63;4.20;;;15.90;99.90;;;;;;5054548;28;20173;-68
2023/10/13 00:58:34;;;;;;;5.47;3.42;;;15.90;99.90;;;;;;5059015;28;20087;-68
2023/10/13 01:01:17;;;;;;;6.68;3.40;;;15.80;99.90;;;;;;5056241;28;20054;-68
2023/10/13 01:04:00;;;;;;;8.30;3.75;;;15.90;99.90;;;;;;5057969;28;20398;-68
2023/10/13 01:06:30;;;;;;;5.30;3.97;;;15.90;99.90;;;;;;5058686;28;20090;-67
2023/10/13 01:09:16;;;;;;;6.00;3.88;;;15.90;99.90;;;;;;5059732;28;20765;-68
2023/10/13 01:11:48;;;;;;;5.45;3.55;;;15.90;99.90;;;;;;5055127;28;20143;-68
2023/10/13 01:14:18;;;;;;;8.93;4.05;;;15.90;99.90;;;;;;5054764;28;20444;-67
2023/10/13 01:16:52;;;;;;;5.95;3.30;;;15.90;99.90;;;;;;5056401;28;20113;-67
2023/10/13 01:19:19;;;;;;;7.78;3.60;;;15.90;99.90;;;;;;5055314;28;20845;-68
2023/10/13 01:21:47;;;;;;;6.20;3.08;;;15.90;99.90;;;;;;5058517;28;20039;-67
2023/10/13 01:24:16;;;;;;;7.95;3.50;;;15.90;99.90;;;;;;5057499;28;20720;-68
2023/10/13 01:26:43;;;;;;;7.88;3.58;;;15.90;99.90;;;;;;5059396;28;20036;-68
2023/10/13 01:29:12;;;;;;;13.07;3.40;;;15.90;99.90;;;;;;5059322;28;20039;-68
2023/10/13 01:31:45;;;;;;;5.68;2.90;;;15.90;99.90;;;;;;5060935;28;20742;-67
2023/10/13 01:34:24;;;;;;;3.90;2.70;;;15.90;99.90;;;;;;5058929;28;20024;-68
2023/10/13 01:36:53;;;;;;;9.55;3.55;;;15.90;99.90;;;;;;5055368;28;20448;-68
2023/10/13 01:39:28;;;;;;;5.20;2.92;;;15.90;99.90;;;;;;5056879;28;20036;-68
2023/10/13 01:41:58;;;;;;;6.03;3.25;;;15.90;99.90;;;;;;5061064;28;20029;-68
2023/10/13 01:44:26;;;;;;;5.00;2.80;;;15.90;99.90;;;;;;5060997;28;20139;-68
2023/10/13 01:46:52;;;;;;;6.47;3.67;;;15.90;99.90;;;;;;5060502;28;20057;-67
2023/10/13 01:49:18;;;;;;;5.20;3.60;;;15.90;99.90;;;;;;5054292;28;20461;-68
2023/10/13 01:51:47;;;;;;;5.43;3.60;;;15.90;99.90;;;;;;5054267;28;20060;-68
2023/10/13 01:54:15;;;;;;;9.95;4.57;;;15.90;99.90;;;;;;5053296;28;20396;-68
2023/10/13 01:56:44;;;;;;;7.57;3.60;;;15.90;99.90;;;;;;5059767;28;20048;-68
2023/10/13 01:59:11;;;;;;;7.32;3.90;;;15.80;99.90;;;;;;5060834;28;20846;-69
2023/10/13 02:01:39;;;;;;;6.60;3.47;;;15.80;99.90;;;;;;5053450;28;20536;-68
2023/10/13 02:04:06;;;;;;;7.55;4.45;;;15.90;99.90;;;;;;5056134;28;20650;-68
2023/10/13 02:06:36;;;;;;;8.27;3.53;;;15.90;99.90;;;;;;5052848;28;20071;-67
2023/10/13 02:09:12;;;;;;;6.78;4.57;;;15.90;99.90;;;;;;5057182;28;20039;-68
2023/10/13 02:11:39;;;;;;;;;;;15.90;99.90;;;;;;5053846;28;20043;-68
2023/10/13 02:14:05;;;;;;;3.80;3.22;;;15.90;99.90;;;;;;5056727;28;20387;-67
2023/10/13 02:16:31;;;;;;;6.32;3.47;;;15.90;99.90;;;;;;5061200;28;20043;-67
2023/10/13 02:19:03;;;;;;;8.52;4.45;;;15.90;99.90;;;;;;5057843;28;20040;-68
2023/10/13 02:21:31;;;;;;;7.78;4.10;;;15.90;99.90;;;;;;5057708;28;20029;-67
2023/10/13 02:24:02;;;;;;;7.90;4.15;;;15.90;99.90;;;;;;5060467;28;20028;-68
2023/10/13 02:26:30;;;;;;;6.85;4.03;;;15.90;99.90;;;;;;5055905;28;20033;-68
2023/10/13 02:28:58;;;;;;;8.45;5.32;;;16.00;99.90;;;;;;5056834;28;20020;-68
2023/10/13 02:31:27;;;;;;;8.57;4.47;;;15.90;99.90;;;;;;5056038;28;20445;-68
2023/10/13 02:33:53;;;;;;;5.60;4.43;;;15.90;99.90;;;;;;5061219;28;20086;-67
2023/10/13 02:36:36;;;;;;;8.43;4.72;;;15.90;99.90;;;;;;5062987;28;20036;-67
2023/10/13 02:39:08;;;;;;;6.47;4.35;;;15.90;99.90;;;;;;5061421;28;20028;-67
2023/10/13 02:41:38;;;;;;;8.45;4.45;;;15.90;99.90;;;;;;5073317;28;20032;-68
2023/10/13 02:44:26;;;;;;;7.25;4.43;;;16.00;99.90;;;;;;5061068;28;20032;-68
2023/10/13 02:46:51;;;;;;;6.18;4.40;;;16.00;99.90;;;;;;5058810;28;20028;-68
2023/10/13 02:49:19;;;;;;;8.40;5.18;;;16.00;99.90;;;;;;5059494;28;20462;-68
2023/10/13 02:51:45;;;;;;;14.02;6.05;;;16.00;99.90;;;;;;5058045;28;20039;-68
2023/10/13 02:54:11;;;;;;;7.47;4.90;;;16.00;99.90;;;;;;5060315;28;20598;-67
2023/10/13 02:57:03;;;;;;;9.52;6.05;;;16.00;99.90;;;;;;5057215;28;20068;-68
2023/10/13 02:59:40;;;;;;;10.70;6.50;;;16.00;99.90;;;;;;5060432;28;20412;-68
2023/10/13 03:02:17;;;;;;;8.73;5.68;;;16.10;99.90;;;;;;5059344;28;20025;-68
2023/10/13 03:04:49;;;;;;;11.05;5.72;;;16.10;99.90;;;;;;5062644;28;20033;-68
2023/10/13 03:07:15;;;;;;;10.30;5.20;;;16.00;99.90;;;;;;5057406;28;20070;-68
2023/10/13 03:09:57;;;;;;;10.32;5.38;;;16.00;99.90;;;;;;5062501;28;20036;-68
2023/10/13 03:12:33;;;;;;;10.00;5.55;;;16.00;99.90;;;;;;5056169;28;20039;-67
2023/10/13 03:15:17;;;;;;;9.73;6.20;;;16.00;99.90;;;;;;5063134;28;20040;-68
2023/10/13 03:17:44;;;;;;;9.05;5.47;;;16.00;99.90;;;;;;5073488;28;20761;-67
2023/10/13 03:20:15;;;;;;;9.27;5.60;;;16.10;99.90;;;;;;5062740;28;20081;-68
2023/10/13 03:22:44;;;;;;;7.93;5.38;;;16.00;99.90;;;;;;5059490;28;20025;-68
2023/10/13 03:25:17;;;;;;;9.73;5.50;;;16.00;99.90;;;;;;5062161;28;20052;-67
2023/10/13 03:30:21;;;;;;;8.18;5.95;;;16.10;99.90;;;;;;5059063;28;20028;-68
2023/10/13 03:32:55;;;;;;;6.78;5.00;;;16.10;99.90;;;;;;5056383;28;20125;-68
2023/10/13 03:35:24;;;;;;;9.52;5.25;;;16.10;99.90;;;;;;5058479;28;20028;-67
2023/10/13 03:37:54;;;;;;;11.38;6.45;;;16.10;99.90;;;;;;5057604;28;20024;-68
2023/10/13 03:43:06;;;;;;;7.25;4.82;;;16.10;99.90;;;;;;5059736;28;20035;-68
2023/10/13 03:45:42;;;;;;;8.15;4.78;;;16.10;99.90;;;;;;5059170;28;20021;-67
2023/10/13 03:51:03;;;;;;;10.82;6.22;;;16.10;99.90;;;;;;5054576;28;20349;-68
2023/10/13 03:53:33;;;;;;;15.27;6.53;;;16.10;99.90;;;;;;5056574;28;20036;-68
2023/10/13 03:56:08;;;;;;;12.98;6.57;;;16.10;99.90;;;;;;5061107;28;20494;-67
2023/10/13 03:58:36;;;;;;;9.25;5.82;;;16.10;99.90;;;;;;5057616;28;20675;-68
2023/10/13 04:01:03;;;;;;;10.75;6.30;;;16.10;99.90;;;;;;5061035;28;20032;-68
2023/10/13 04:03:35;;;;;;;9.98;5.35;;;16.10;99.90;;;;;;5054090;28;20058;-68
2023/10/13 04:06:06;;;;;;;12.15;6.45;;;16.10;99.90;;;;;;5061392;28;20370;-68
2023/10/13 04:11:59;;;;;;;11.27;6.35;;;16.10;99.90;;;;;;5060965;28;20420;-68
2023/10/13 04:16:54;;;;;;;11.07;6.38;;;16.10;99.90;;;;;;5058906;28;20040;-67
2023/10/13 04:19:23;;;;;;;11.35;6.20;;;16.10;99.90;;;;;;5056075;28;20074;-68
2023/10/13 04:21:58;;;;;;;14.05;8.07;;;16.10;99.90;;;;;;5053153;28;20470;-68
2023/10/13 04:33:05;;;;;;;15.48;8.20;;;16.20;99.90;;;;;;5012100;28;20363;-68
2023/10/13 04:35:37;;;;;;;19.65;8.50;;;16.20;99.90;;;;;;5045718;28;20041;-67
2023/10/13 04:38:18;;;;;;;18.13;8.55;;;16.20;99.90;;;;;;5038156;28;20028;-68
2023/10/13 04:40:58;;;;;;;17.85;9.55;;;16.30;99.90;;;;;;5060523;28;20037;-66
2023/10/13 04:43:55;;;;;;;18.73;8.70;;;16.30;99.90;;;;;;5055916;28;20444;-68
2023/10/13 04:46:54;;;;;;;16.88;8.43;;;16.30;99.90;;;;;;5056034;28;20029;-68
2023/10/13 04:49:26;;;;;;;13.65;8.32;;;16.30;99.90;;;;;;5053231;28;20408;-68
2023/10/13 04:51:58;;;;;;;18.88;8.25;;;16.30;99.90;;;;;;5061391;28;20036;-68
2023/10/13 04:54:26;;;;;;;18.20;8.98;;;16.30;99.90;;;;;;5056751;28;20064;-68
2023/10/13 05:05:30;;;;;;;17.23;8.15;;;16.40;99.90;;;;;;5053323;28;20034;-68
2023/10/13 06:29:55;;;;;;;15.27;8.35;;;16.40;99.90;;;;;;5065193;28;20032;-68
2023/10/13 06:32:25;;;;;;;12.93;8.07;;;16.30;99.90;;;;;;5064622;28;20106;-68
2023/10/13 06:34:57;;;;;;;16.75;7.60;;;16.40;99.90;;;;;;5060741;28;20040;-68
2023/10/13 06:37:34;;;;;;;15.73;7.70;;;16.40;99.90;;;;;;5059144;28;20036;-68
2023/10/13 06:40:19;;;;;;;14.98;7.95;;;16.50;99.90;;;;;;5063290;28;20066;-67
2023/10/13 06:42:45;;;;;;;11.65;7.53;;;16.50;99.90;;;;;;5061662;28;21351;-68
2023/10/13 06:45:16;;;;;;;14.10;7.82;;;16.60;99.90;;;;;;5059359;28;20032;-68
2023/10/13 06:47:43;;;;;;;17.70;8.25;;;16.60;99.90;;;;;;5059944;28;20077;-68
2023/10/13 06:50:16;;;;;;;13.55;7.07;;;16.70;99.90;;;;;;5055913;28;20032;-68
2023/10/13 06:52:49;;;;;;;13.10;7.35;;;16.70;99.90;;;;;;5063648;28;20089;-68
2023/10/13 06:55:23;;;;;;;15.95;7.15;;;16.80;99.90;;;;;;5062385;28;20028;-68
2023/10/13 06:57:51;;;;;;;15.63;7.15;;;16.90;99.90;;;;;;5056700;28;20028;-68
2023/10/13 07:00:27;;;;;;;12.27;7.10;;;17.00;99.90;;;;;;5055697;28;20498;-68
2023/10/13 07:02:53;;;;;;;12.02;6.93;;;17.10;99.90;;;;;;5062623;28;20032;-68
2023/10/13 07:05:19;;;;;;;16.30;6.47;;;17.10;99.90;;;;;;5061825;28;20380;-68
2023/10/13 07:07:45;;;;;;;12.02;6.38;;;17.10;99.90;;;;;;5062785;28;20453;-67
2023/10/13 07:10:12;;;;;;;10.63;6.45;;;17.30;99.90;;;;;;5060506;28;20032;-68
2023/10/13 07:12:43;;;;;;;12.55;6.50;;;17.30;99.90;;;;;;5062437;28;20040;-68
2023/10/13 07:15:19;;;;;;;10.90;6.40;;;17.40;99.90;;;;;;5062016;28;20044;-68
2023/10/13 07:17:46;;;;;;;;;;;17.50;99.90;;;;;;5062265;28;20040;-68
2023/10/13 07:20:16;;;;;;;11.80;6.35;;;17.50;99.90;;;;;;5059212;28;19977;-68
2023/10/13 07:22:54;;;;;;;18.60;6.35;;;17.70;99.90;;;;;;5062387;28;20033;-68
2023/10/13 07:25:25;;;;;;;17.67;6.63;;;17.70;99.90;;;;;;5053705;28;20029;-68
2023/10/13 07:27:51;;;;;;;11.70;6.97;;;17.60;99.90;;;;;;5054613;28;20032;-68
2023/10/13 07:30:19;;;;;;;16.13;6.13;;;17.60;99.90;;;;;;5061838;28;20162;-68
2023/10/13 07:32:46;;;;;;;18.08;7.07;;;17.60;99.90;;;;;;5064317;28;20046;-68
2023/10/13 07:35:20;;;;;;;12.48;6.78;;;17.50;99.90;;;;;;5064459;28;20032;-68
2023/10/13 07:37:52;;;;;;;11.18;6.82;;;17.60;99.90;;;;;;5061487;28;20032;-68
2023/10/13 07:42:50;;;;;;;11.10;6.43;;;17.80;99.90;;;;;;5063119;28;20052;-68
2023/10/13 07:45:24;;;;;;;10.20;6.70;;;17.90;99.90;;;;;;5058623;28;20120;-68
2023/10/13 07:47:51;;;;;;;11.73;5.80;;;17.90;99.90;;;;;;5060988;28;20392;-67
2023/10/13 07:50:25;;;;;;;10.13;5.63;;;17.90;99.90;;;;;;5059477;28;20031;-68
2023/10/13 07:53:18;;;;;;;10.77;6.25;;;18.00;99.90;;;;;;5055408;28;20028;-67
2023/10/13 07:55:47;;;;;;;9.60;5.95;;;18.00;99.90;;;;;;5060057;28;20033;-69
2023/10/13 07:58:13;;;;;;;11.73;5.78;;;18.10;99.90;;;;;;5059676;28;20468;-69
2023/10/13 08:08:37;;;;;;;8.90;5.50;;;18.10;99.90;;;;;;5057776;28;20044;-69
2023/10/13 08:13:58;;;;;;;9.48;5.00;;;18.10;99.90;;;;;;5062902;28;20063;-69
2023/10/13 08:16:30;;;;;;;7.10;5.15;;;18.10;99.90;;;;;;5058008;28;20024;-69
2023/10/13 08:18:56;;;;;;;9.82;4.97;;;18.10;99.90;;;;;;5057191;28;20606;-70
2023/10/13 08:21:25;;;;;;;11.55;5.22;;;18.10;99.90;;;;;;5053580;28;20029;-69
2023/10/13 08:32:43;;;;;;;7.80;4.80;;;18.30;99.90;;;;;;5055770;28;20082;-66
2023/10/13 08:35:00;;;;;;;8.00;4.32;;;18.30;99.90;;;;;;5046492;28;20055;-69
2023/10/13 08:37:33;;;;;;;7.97;4.82;;;18.40;99.90;;;;;;5057738;28;20132;-68
2023/10/13 08:42:52;;;;;;;9.48;4.35;;;18.30;99.90;;;;;;5059814;28;20040;-69
2023/10/13 09:07:37;;;;;;;9.52;4.85;;;18.40;99.90;;;;;;5056326;28;20055;-68
2023/10/13 09:12:19;;;;;;;9.07;4.20;;;18.60;99.90;;;;;;5057300;28;20043;-66
2023/10/13 09:14:58;;;;;;;16.00;4.60;;;18.60;99.90;;;;;;5063123;28;20051;-69
2023/10/13 09:19:59;;;;;;;10.10;4.95;;;18.50;99.90;;;;;;5060231;28;20076;-68
2023/10/13 09:22:35;;;;;;;7.55;4.30;;;18.50;99.90;;;;;;5058703;28;20806;-68
2023/10/13 09:25:05;;;;;;;12.10;4.60;;;18.50;99.90;;;;;;5058720;28;20394;-69
2023/10/13 09:27:33;;;;;;;9.18;4.25;;;18.50;99.90;;;;;;5056017;28;20037;-69
2023/10/13 09:30:36;;;;;;;7.45;4.43;;;18.50;99.90;;;;;;5066360;28;20033;-69
2023/10/13 09:33:04;;;;;;;6.93;4.50;;;18.50;99.90;;;;;;5061699;28;20063;-69
2023/10/13 09:35:34;;;;;;;7.70;4.20;;;18.40;99.90;;;;;;5065917;28;20442;-69
2023/10/13 09:38:03;;;;;;;8.50;4.35;;;18.40;99.90;;;;;;5057000;28;20696;-69
2023/10/13 09:40:38;;;;;;;6.18;4.10;;;18.40;99.90;;;;;;5063989;28;20119;-69
2023/10/13 09:43:07;;;;;;;10.93;4.68;;;18.40;99.90;;;;;;5062629;28;20028;-68
2023/10/13 09:45:43;;;;;;;10.20;4.57;;;18.40;99.90;;;;;;5061732;28;20464;-69
2023/10/13 09:48:26;;;;;;;6.30;4.43;;;18.40;99.90;;;;;;5058686;28;20496;-69
2023/10/13 09:50:57;;;;;;;9.57;4.07;;;18.60;99.90;;;;;;5062150;28;20036;-69
2023/10/13 09:53:23;;;;;;;7.28;3.70;;;18.60;99.90;;;;;;5061957;28;20028;-69
2023/10/13 09:56:11;;;;;;;6.22;3.90;;;18.70;99.90;;;;;;5065016;28;20131;-70
2023/10/13 09:58:51;;;;;;;5.50;4.03;;;18.80;99.90;;;;;;5063458;28;20033;-69
2023/10/13 10:01:32;;;;;;;5.22;3.65;;;18.90;99.90;;;;;;5055220;28;20033;-69
2023/10/13 10:04:17;;;;;;;8.10;4.28;;;18.70;99.90;;;;;;5064327;28;20020;-69
2023/10/13 10:06:57;;;;;;;9.32;3.85;;;18.70;99.90;;;;;;5062956;28;20037;-69
2023/10/13 10:09:34;;;;;;;5.07;4.05;;;18.70;99.90;;;;;;5063323;28;20412;-69
2023/10/13 10:12:26;;;;;;;5.15;3.65;;;18.70;99.90;;;;;;5061527;28;20032;-70
2023/10/13 10:15:13;;;;;;;6.22;3.85;;;18.70;99.90;;;;;;5059717;28;20024;-69
2023/10/13 10:17:43;;;;;;;6.90;4.10;;;18.70;99.90;;;;;;5056471;28;20134;-69
2023/10/13 10:20:39;;;;;;;7.65;4.30;;;18.60;99.90;;;;;;5066843;28;20032;-69
2023/10/13 10:23:00;;;;;;;6.25;3.90;;;18.70;99.90;;;;;;5060430;28;20063;-69
2023/10/13 10:25:35;;;;;;;7.63;4.53;;;18.70;99.90;;;;;;5062485;28;20078;-69
2023/10/13 10:28:06;;;;;;;;;;;18.70;99.90;;;;;;5057974;28;20037;-69
2023/10/13 10:30:35;;;;;;;7.85;4.70;;;18.70;99.90;;;;;;5062268;28;19959;-70
2023/10/13 10:33:35;;;;;;;8.02;4.40;;;18.80;99.90;;;;;;5059015;28;20028;-69
2023/10/13 10:36:01;;;;;;;7.25;4.22;;;18.70;99.90;;;;;;5057998;28;20044;-69
2023/10/13 10:41:04;;;;;;;7.28;4.03;;;18.50;99.90;;;;;;5061658;28;20522;-66
2023/10/13 10:43:47;;;;;;;6.47;4.45;;;18.60;99.90;;;;;;5063326;28;20123;-67
2023/10/13 10:46:25;;;;;;;6.90;4.40;;;18.60;99.90;;;;;;5061777;28;20017;-68
2023/10/13 10:48:56;;;;;;;9.32;5.00;;;18.60;99.90;;;;;;5060694;28;20032;-68
2023/10/13 10:51:22;;;;;;;9.93;4.78;;;18.70;99.90;;;;;;5065154;28;20028;-72
2023/10/13 10:53:52;;;;;;;9.50;4.82;;;18.70;99.90;;;;;;5058719;28;20131;-69
2023/10/13 10:56:36;;;;;;;8.98;4.50;;;18.70;99.90;;;;;;5060753;28;20033;-69
2023/10/13 10:59:04;;;;;;;6.75;4.35;;;18.70;99.90;;;;;;5060434;28;20579;-69
2023/10/13 11:01:38;;;;;;;7.82;5.38;;;18.80;99.90;;;;;;5064267;28;20028;-69
2023/10/13 11:06:56;;;;;;;9.45;4.68;;;18.90;99.90;;;;;;5063790;28;20040;-69
2023/10/13 11:09:31;;;;;;;7.70;4.20;;;18.90;99.90;;;;;;5065269;28;20519;-69
2023/10/13 11:12:14;;;;;;;6.22;4.13;;;18.90;99.90;;;;;;5058730;28;20067;-69
2023/10/13 11:14:41;;;;;;;5.93;4.07;;;18.90;99.90;;;;;;5064938;28;20040;-69
2023/10/13 11:17:18;;;;;;;10.02;4.25;;;18.90;99.90;;;;;;5060877;28;20039;-69
2023/10/13 11:19:44;;;;;;;5.82;3.75;;;18.90;99.90;;;;;;5062377;28;20592;-69
2023/10/13 11:22:36;;;;;;;8.32;4.35;;;19.00;99.90;;;;;;5064310;28;20012;-69
2023/10/13 11:25:14;;;;;;;7.50;3.92;;;19.10;99.90;;;;;;5056964;28;20032;-69
2023/10/13 11:30:19;;;;;;;9.07;4.03;;;19.20;99.90;;;;;;5060808;28;20043;-68
2023/10/13 11:32:57;;;;;;;7.90;4.18;;;19.20;99.90;;;;;;5064677;28;20036;-68
2023/10/13 11:35:23;;;;;;;8.90;4.22;;;19.20;99.90;;;;;;5061765;28;20036;-68
2023/10/13 11:38:25;;;;;;;8.80;3.33;;;19.30;99.90;;;;;;5063916;28;20056;-68
2023/10/13 11:41:06;;;;;;;8.35;4.20;;;19.30;99.90;;;;;;5059345;28;20044;-67
2023/10/13 11:48:37;;;;;;;6.45;3.92;;;19.40;99.90;;;;;;5054353;28;20537;-69
2023/10/13 11:51:07;;;;;;;5.50;4.03;;;19.50;99.90;;;;;;5062149;28;20040;-68
2023/10/13 11:53:36;;;;;;;7.28;4.03;;;19.60;99.90;;;;;;5063565;28;20491;-68
2023/10/13 11:56:09;;;;;;;7.15;4.05;;;19.70;99.90;;;;;;5062679;28;20508;-68
2023/10/13 11:58:39;;;;;;;8.02;3.50;;;19.80;99.90;;;;;;5061392;28;20047;-68
2023/10/13 12:11:41;;;;;;;8.25;3.83;;;20.10;99.90;;;;;;5060936;28;20457;-67
2023/10/13 12:14:36;;;;;;;20.50;4.70;;;20.10;99.90;;;;;;5056890;28;21016;-69
2023/10/13 12:17:04;;;;;;;9.40;3.80;;;20.20;99.90;;;;;;5037618;28;20116;-68
2023/10/13 12:19:30;;;;;;;6.35;3.90;;;20.30;99.90;;;;;;5036438;28;20030;-69
2023/10/13 12:21:57;;;;;;;9.90;3.85;;;20.30;99.90;;;;;;5038826;28;20583;-69
2023/10/13 12:27:18;;;;;;;9.90;3.53;;;20.30;99.90;;;;;;5032403;28;20033;-69
2023/10/13 12:29:56;;;;;;;8.82;3.65;;;20.40;99.90;;;;;;5032199;28;20091;-68
2023/10/13 12:32:25;;;;;;;7.50;3.08;;;20.50;99.90;;;;;;5040248;28;20065;-69
2023/10/13 12:35:22;;;;;;;8.20;4.07;;;20.60;99.90;;;;;;5034199;28;20108;-69
2023/10/13 12:51:20;;;;;;;6.22;3.53;;;21.00;99.90;;;;;;5040452;28;20041;-68
2023/10/13 12:53:50;;;;;;;11.45;3.45;;;21.00;99.90;;;;;;5036761;28;20033;-68
2023/10/13 12:56:17;;;;;;;9.10;3.42;;;21.10;99.90;;;;;;5039930;28;20041;-69
2023/10/13 12:58:53;;;;;;;9.05;3.95;;;21.20;99.90;;;;;;5039811;28;20214;-69
2023/10/13 13:01:24;;;;;;;8.90;3.00;;;21.20;99.90;;;;;;5039432;28;20041;-69
2023/10/13 13:03:55;;;;;;;14.90;4.00;;;21.30;99.90;;;;;;5039541;28;20493;-69
2023/10/13 13:06:25;;;;;;;11.02;3.70;;;21.40;99.90;;;;;;5035144;28;20029;-69
2023/10/13 13:08:55;;;;;;;10.73;3.58;;;21.30;99.90;;;;;;5034497;28;20676;-69
2023/10/13 13:11:21;;;;;;;9.05;3.83;;;21.40;99.90;;;;;;5036685;28;20091;-67
2023/10/13 13:13:47;;;;;;;15.55;3.95;;;21.40;99.90;;;;;;5035692;28;20562;-68
2023/10/13 13:16:14;;;;;;;9.57;3.72;;;21.40;99.90;;;;;;5039539;28;20053;-68
2023/10/13 13:18:40;;;;;;;10.63;3.50;;;21.40;99.90;;;;;;5032429;28;20104;-69
2023/10/13 13:21:12;;;;;;;9.30;3.42;;;21.50;99.90;;;;;;5037212;28;20571;-68
2023/10/13 13:23:39;;;;;;;7.85;4.05;;;21.50;99.90;;;;;;5024076;28;20061;-68
2023/10/13 13:26:15;;;;;;;9.70;3.72;;;21.40;99.90;;;;;;5026659;28;20043;-68
2023/10/13 13:28:45;;;;;;;;;;;21.50;99.90;;;;;;5022903;28;20037;-68
2023/10/13 13:31:12;;;;;;;7.82;4.07;;;21.50;99.90;;;;;;5022300;28;19913;-68
2023/10/13 13:33:38;;;;;;;8.38;3.55;;;21.70;99.90;;;;;;5021780;28;20045;-69
2023/10/13 13:36:13;;;;;;;10.48;3.72;;;21.70;99.90;;;;;;5023362;28;20061;-68
2023/10/13 13:38:40;;;;;;;7.78;4.07;;;21.80;99.90;;;;;;5014236;28;20030;-68
2023/10/13 13:41:15;;;;;;;9.18;3.95;;;21.80;99.90;;;;;;5018613;28;20045;-68
2023/10/13 13:46:27;;;;;;;8.40;3.80;;;21.80;99.90;;;;;;5015491;28;20386;-68
2023/10/13 13:49:06;;;;;;;4.35;3.00;;;21.80;99.90;;;;;;5017626;28;20041;-68
2023/10/13 13:51:33;;;;;;;8.35;3.97;;;21.80;99.90;;;;;;5024241;28;20076;-67
2023/10/13 13:53:59;;;;;;;8.77;3.38;;;21.90;99.90;;;;;;5023338;28;20037;-68
2023/10/13 13:56:28;;;;;;;10.00;3.80;;;21.90;99.90;;;;;;5024126;28;20033;-68
2023/10/13 13:58:58;;;;;;;8.40;3.30;;;22.00;99.90;;;;;;5018211;28;20095;-67
2023/10/13 14:01:29;;;;;;;11.57;3.90;;;22.00;99.90;;;;;;5026050;28;20481;-67
2023/10/13 14:04:02;;;;;;;8.00;3.40;;;22.00;99.90;;;;;;5019066;28;20064;-66
2023/10/13 14:06:29;;;;;;;11.07;3.75;;;22.00;99.90;;;;;;5022288;28;20500;-68
2023/10/13 14:08:56;;;;;;;10.50;3.40;;;22.00;99.90;;;;;;5017041;28;20033;-68
2023/10/13 14:14:13;;;;;;;9.32;3.72;;;22.10;99.90;;;;;;5021161;28;20041;-67
2023/10/13 14:16:47;;;;;;;12.38;3.35;;;22.10;99.90;;;;;;5025442;28;20036;-67
2023/10/13 14:19:26;;;;;;;8.82;3.33;;;22.20;99.90;;;;;;5019498;28;20051;-68
2023/10/13 14:21:56;;;;;;;10.35;4.28;;;22.20;99.90;;;;;;5024073;28;20041;-68
2023/10/13 14:24:28;;;;;;;7.28;3.30;;;22.20;99.90;;;;;;5022210;28;20171;-68
2023/10/13 14:26:55;;;;;;;11.15;3.47;;;22.10;99.90;;;;;;5022994;28;20033;-68
2023/10/13 14:29:21;;;;;;;6.70;3.40;;;22.10;99.90;;;;;;5017170;28;20033;-68
2023/10/13 14:31:49;;;;;;;8.80;3.42;;;22.10;99.90;;;;;;5019698;28;20026;-68
2023/10/13 14:34:14;;;;;;;11.20;3.38;;;22.10;99.90;;;;;;5021145;28;20055;-68
2023/10/13 14:36:41;;;;;;;6.80;3.13;;;22.00;99.90;;;;;;5021729;28;20077;-68
2023/10/13 14:39:10;;;;;;;6.95;3.65;;;22.10;99.90;;;;;;5017710;28;20045;-68
2023/10/13 14:41:37;;;;;;;8.82;3.63;;;22.10;99.90;;;;;;5018964;28;20689;-68
2023/10/13 14:44:06;;;;;;;9.10;3.47;;;22.10;99.90;;;;;;5022635;28;20059;-68
2023/10/13 14:46:36;;;;;;;10.98;4.10;;;22.00;99.90;;;;;;5018662;28;20034;-68
2023/10/13 14:49:02;;;;;;;8.20;4.00;;;21.90;99.90;;;;;;5025722;28;20037;-68
2023/10/13 14:51:29;;;;;;;10.30;3.88;;;21.90;99.90;;;;;;5020463;28;20034;-68
2023/10/13 14:53:56;;;;;;;9.40;3.58;;;21.90;99.90;;;;;;5025013;28;20476;-68
2023/10/13 14:56:25;;;;;;;14.05;3.83;;;22.00;99.90;;;;;;5021760;28;20040;-68
2023/10/13 14:58:51;;;;;;;10.50;3.65;;;22.00;99.90;;;;;;5020027;28;20029;-68
2023/10/13 15:01:19;;;;;;;8.10;3.67;;;22.00;99.90;;;;;;5018132;28;20026;-69
2023/10/13 15:03:47;;;;;;;10.98;3.78;;;22.10;99.90;;;;;;5017706;28;20056;-68
2023/10/13 15:06:29;;;;;;;9.20;3.20;;;22.10;99.90;;;;;;5022628;28;20064;-68
2023/10/13 15:08:56;;;;;;;12.18;4.78;;;22.10;99.90;;;;;;5023458;28;20115;-68
2023/10/13 15:11:26;;;;;;;11.07;4.53;;;22.00;99.90;;;;;;5021627;28;20042;-68
2023/10/13 15:13:56;;;;;;;7.43;3.78;;;22.00;99.90;;;;;;5021426;28;20120;-68
2023/10/13 15:16:26;;;;;;;9.60;4.20;;;21.90;99.90;;;;;;5025006;28;20037;-68
2023/10/13 15:18:53;;;;;;;10.82;3.88;;;21.90;99.90;;;;;;5022080;28;20044;-68
2023/10/13 15:21:26;;;;;;;8.98;3.38;;;21.90;99.90;;;;;;5024633;28;20589;-68
2023/10/13 15:23:53;;;;;;;7.53;3.80;;;21.80;99.90;;;;;;5021967;28;20029;-67
2023/10/13 15:26:21;;;;;;;7.45;4.00;;;21.80;99.90;;;;;;5017879;28;20076;-68
2023/10/13 15:28:53;;;;;;;13.93;3.55;;;21.80;99.90;;;;;;5022493;28;20049;-68
2023/10/13 15:34:06;;;;;;;12.18;4.30;;;21.90;99.90;;;;;;5017637;28;20033;-69
2023/10/13 15:36:33;;;;;;;6.75;3.58;;;21.80;99.90;;;;;;5020249;28;20405;-68
2023/10/13 15:39:00;;;;;;;8.95;4.03;;;21.70;99.90;;;;;;5020732;28;20026;-69
2023/10/13 15:41:28;;;;;;;9.70;3.80;;;21.70;99.90;;;;;;5024697;28;20104;-69
2023/10/13 15:43:55;;;;;;;13.50;4.40;;;21.70;99.90;;;;;;5020662;28;20519;-69
2023/10/13 15:46:24;;;;;;;13.88;4.25;;;21.80;99.90;;;;;;5017571;28;20029;-68
2023/10/13 15:48:53;;;;;;;10.25;3.65;;;21.70;99.90;;;;;;5019690;28;20133;-69
2023/10/13 15:51:20;;;;;;;6.68;3.72;;;21.70;99.90;;;;;;5017486;28;20409;-69
2023/10/13 15:53:49;;;;;;;9.80;3.88;;;21.70;99.90;;;;;;5020080;28;20038;-68
2023/10/13 15:56:16;;;;;;;9.82;4.22;;;21.60;99.90;;;;;;5019405;28;20029;-70
2023/10/13 15:58:43;;;;;;;7.47;3.42;;;21.60;99.90;;;;;;5021169;28;20041;-70
2023/10/13 16:01:12;;;;;;;5.50;3.65;;;21.50;99.90;;;;;;5020917;28;20033;-68
2023/10/13 16:03:43;;;;;;;18.88;3.85;;;21.50;99.90;;;;;;5020447;28;20038;-69
2023/10/13 16:06:13;;;;;;;8.25;3.47;;;21.50;99.90;;;;;;5017269;28;20029;-67
2023/10/13 16:08:42;;;;;;;14.00;3.95;;;21.50;99.90;;;;;;5022542;28;20029;-68
2023/10/13 16:11:13;;;;;;;8.80;4.10;;;21.50;99.60;;;;;;5016146;28;20033;-68
2023/10/13 16:13:42;;;;;;;17.05;4.63;;;21.50;99.70;;;;;;5020505;28;20037;-68
2023/10/13 16:16:19;;;;;;;12.52;3.63;;;21.50;99.40;;;;;;5016091;28;20033;-69
2023/10/13 16:18:47;;;;;;;9.98;3.80;;;21.50;99.30;;;;;;5021033;28;20041;-69
2023/10/13 16:21:14;;;;;;;12.43;3.83;;;21.60;99.20;;;;;;5015787;28;20030;-69
2023/10/13 16:23:41;;;;;;;7.75;3.25;;;21.60;98.60;;;;;;5021349;28;20034;-67
2023/10/13 16:26:08;;;;;;;10.88;3.42;;;21.60;98.70;;;;;;5021460;28;20587;-67
2023/10/13 16:28:35;;;;;;;8.30;3.35;;;21.60;98.40;;;;;;5019989;28;20070;-68
2023/10/13 16:31:02;;;;;;;7.32;3.33;;;21.70;98.20;;;;;;5020909;28;20036;-68
2023/10/13 16:33:28;;;;;;;9.45;3.42;;;21.70;98.10;;;;;;5014084;28;20088;-68
2023/10/13 16:35:56;;;;;;;4.80;3.13;;;21.60;97.90;;;;;;5020385;28;20517;-68
2023/10/13 16:38:27;;;;;;;6.72;3.72;;;21.80;97.80;;;;;;5019412;28;20032;-68
2023/10/13 16:40:53;;;;;;;8.20;3.28;;;21.70;97.50;;;;;;5018096;28;20029;-68
2023/10/13 16:43:20;;;;;;;7.82;2.92;;;21.70;97.30;;;;;;5019061;28;20037;-68
2023/10/13 16:45:46;;;;;;;13.45;3.75;;;21.70;97.00;;;;;;5018323;28;20038;-68
2023/10/13 16:48:16;;;;;;;8.02;3.22;;;21.70;97.10;;;;;;5019089;28;20035;-68